默认 日期 大小 文件数 浏览量 最新下载 xml
miller磁力链接相关资源由用户搜索指令自动获取,结果来源于网络,本站不存储任何资料,亦不承担任何责任,请于24小时内删除,搜索到15573个磁力,显示前4000条数据,用时5ms。
    ... schoeps.pcm.oade.bryant.gastwirt.miller.clugston.flac16.ffp": 589 ... .pcm.oade.bryant.gastwirt.miller.clugston.flac16.md5": 597 ... schoeps.pcm.oade.bryant.gastwirt.miller.clugston.flac16.txt": 1835 ... pcm.oade.bryant.gastwirt.miller.clugston.flac16.shntool_len.txt": ...
创建时间: 2018-11-20 09:01:21 大小:320.32 MB 文件数量:12 热度:10 最近下载:2025-04-08 22:40:02
    {"14 Drums.flac": 80883800, "15 Space.flac": 61431002, "20 Gloria.flac": 50777407, "16 The Wheel.flac": 31696082, "01 Jack Straw.flac": 37057214, "04 Loose Lucy.flac": 54575101, "18 Morning Dew.flac": 71604980, "19 Encore Break.flac": 11547566, "03 Walkin' ...
创建时间: 2018-11-20 09:30:00 大小:937.03 MB 文件数量:23 热度:9 最近下载:2025-08-03 19:59:05
    {"Cover.jpeg": 221015, "04 - Evil (Live).mp3": 11250276, "05 - Mary Lou (Live).mp3": 9575312, "09 - The Joker (Live).mp3": 12465502, "08 - Sugar Babe (Live).mp3": 9994321, "02 - The Lovin' Cup (Live).mp3": 7547178, "01 - Come On In My Kitchen (Live).mp3": ...
创建时间: 2018-11-20 09:39:27 大小:84.76 MB 文件数量:10 热度:12 最近下载:2025-02-04 07:43:01
    {"gd71-05-29.ffp": 530, "gd71-05-29.txt": 3028, "gd71-05-29t01.flac": 21504866, "gd71-05-29t02.flac": 55480106, "gd71-05-29t03.flac": 20066785, "gd71-05-29t04.flac": 110472092, "gd71-05-29t05.flac": 71516427, "gd71-05-29t06.flac": 40255230, "gd71-05-29t07. ...
创建时间: 2018-11-20 10:23:00 大小:431.49 MB 文件数量:13 热度:12 最近下载:2025-08-01 14:32:07
    {"NH.png": 221469, "info.txt": 391, "Torrent downloaded from www.Demonoid.pw.txt": 47, "Miller's Crossing - Crocevia della Morte 1990 BDRip 1080p Ita Eng x265-NAHOM.mkv": 2731225618}
创建时间: 2018-11-20 11:41:47 大小:2.54 GB 文件数量:4 热度:7 最近下载:2025-02-06 00:58:05
    {"RARBG.txt": 31, "McCabe.And.Mrs.Miller.1971.1080p.BluRay.x264-SiNNERS.mkv": 11736646937}
创建时间: 2018-11-20 12:07:10 大小:10.93 GB 文件数量:2 热度:18 最近下载:2025-07-21 19:58:01
    {"Luisa Miller (Alvarez, Cedolins, Nucci) Part1.mkv": 669528303, "Luisa Miller (Alvarez, Cedolins, Nucci) Part2 (1).mkv": 924096887}
创建时间: 2018-11-20 12:11:35 大小:1.48 GB 文件数量:2 热度:7 最近下载:2024-12-13 19:55:02
    ... {"folder.jpg": 223369, "Steve Miller Band - Fly Like An Eagle [ ... Anniversary].log": 3144, "Steve Miller Band - Fly Like An Eagle ... Anniversary].flac": 338649889, "Steve Miller Band - Fly Like An Eagle ... flac.cue": 2076, "Steve Miller Band - Fly Like An Eagle ...
创建时间: 2018-11-20 12:26:55 大小:7.13 GB 文件数量:41 热度:13 最近下载:2024-12-06 01:15:02
    ... Jacob Miller.torrent": 15503, "Jacob Miller - Silver Bell.mp3": 7604694, "Jacob Miller - ... Dub.mp3": 4384739, "Jacob Miller - Deck The Halls.mp3 ... ": 4073151, "Jacob Miller - Ahaneric Temple.mp3": 6079356, ... .mp3": 5611663, "Jacob Miller - All I Want For ...
创建时间: 2018-11-20 15:04:56 大小:45.76 MB 文件数量:11 热度:8 最近下载:2023-04-18 02:20:06
    {"shntool.txt": 1587, "gd83-03-25d1t01.shn": 46549205, "gd83-03-25d1t02.shn": 56566337, "gd83-03-25d1t03.shn": 24642777, "gd83-03-25d1t04.shn": 32389109, "gd83-03-25d1t05.shn": 37003105, "gd83-03-25d1t06.shn": 20794533, "gd83-03-25d1t07.shn": 42567965, " ...
创建时间: 2018-11-20 15:20:38 大小:831 MB 文件数量:23 热度:18 最近下载:2025-03-24 14:47:02
    {"14 Drums.flac": 62916609, "15 Space.flac": 44680892, "01 Tuning.flac": 11829132, "03 Althea.flac": 50309081, "08 Tuning.flac": 8932742, "19 Gloria.flac": 31604732, "gd93-06-15.ffp": 1038, "gd93-06-15.md5": 1057, "gd93-06-15.txt": 2555, "12 Spoonful.flac ...
创建时间: 2018-11-20 15:54:11 大小:757.07 MB 文件数量:22 热度:7 最近下载:2024-10-11 21:33:02
    {"Sample": {"faq.14.11.17.carol.miller-sample.mp4": 49054826}, "RARBG.com.txt": 34, "faq.14.11.17.carol.miller.mp4": 996348580, "faq.14.11.17.carol.miller.nfo": 6979}
创建时间: 2018-11-20 16:30:48 大小:996.98 MB 文件数量:4 热度:24 最近下载:2025-05-21 11:20:01
    {"CastingCouchX Sexy Miranda Miller has sex on camera for the first time [email protected]": 132901815}
创建时间: 2018-11-20 16:47:49 大小:126.75 MB 文件数量:1 热度:16 最近下载:2025-08-05 07:56:05
    {"gd85-06-15.ffp": 1155, "gd85-06-15d1t01.flac": 50018515, "gd85-06-15d1t02.flac": 49830275, "gd85-06-15d1t03.flac": 64285346, "gd85-06-15d1t04.flac": 41752918, "gd85-06-15d1t05.flac": 48567149, "gd85-06-15d1t06.flac": 21971678, "gd85-06-15d1t07.flac": ...
创建时间: 2018-11-20 16:59:20 大小:902.79 MB 文件数量:24 热度:15 最近下载:2025-02-23 17:50:03
    {"RARBG.txt": 30, "DaneJones.18.01.09.Cristina.Miller.XXX.SD.MP4-KLEENEX.mp4": 179216782}
创建时间: 2018-11-20 18:17:13 大小:170.91 MB 文件数量:2 热度:5 最近下载:2023-04-18 03:10:01
    {"free audiobook version_.txt": 427, "A Million Miles in a Thousand Years by Donald Miller.epub": 859835}
创建时间: 2018-11-20 18:26:34 大小:840.1 KB 文件数量:2 热度:11 最近下载:2025-09-20 04:48:02
    {"gd1983-10-11.137322.ffp": 1357, "gd1983-10-11.137322.md5": 1377, "gd1983-10-11.137322.txt": 3319, "gd1983-10-11.13 Jam.flac": 24720343, "gd1983-10-11.03 Loser.flac": 51159495, "gd1983-10-11.15 Drums.flac": 79907871, "gd1983-10-11.16 Space.flac": 67629045 ...
创建时间: 2018-11-20 18:26:37 大小:932.69 MB 文件数量:23 热度:6 最近下载:2023-04-18 03:10:05
    {"gd91-09-16.ffp": 1100, "gd91-09-16.md5": 1120, "gd91-09-16.txt": 981, "gd91-09-16d1t01.flac": 55025466, "gd91-09-16d1t02.flac": 47462615, "gd91-09-16d1t03.flac": 50098561, "gd91-09-16d1t04.flac": 33991011, "gd91-09-16d1t05.flac": 25234100, "gd91-09- ...
创建时间: 2018-11-20 18:50:35 大小:849.26 MB 文件数量:23 热度:9 最近下载:2024-12-01 17:23:03
    ... 27.fob.beyer.m160.streeter.miller.clugston.flac1648.ffp": 1396, ... 27.fob.beyer.m160.streeter.miller.clugston.flac1648.md5": 1416, ... 27.fob.beyer.m160.streeter.miller.clugston.flac1648.txt": 5087, ... .fob.beyer.m160.streeter.miller.clugston.flac1648.shntool_len.txt": ...
创建时间: 2018-11-20 19:08:37 大小:1.1 GB 文件数量:24 热度:16 最近下载:2025-08-09 18:02:20
    {"RARBG.txt": 30, "vivthomas.17.05.26.amarna.miller.and.inna.innaki.strap.on.4k.mp4": 5499558012, "vivthomas.17.05.26.amarna.miller.and.inna.innaki.strap.on.4k.nfo": 5878}
创建时间: 2018-11-20 20:09:55 大小:5.12 GB 文件数量:3 热度:53 最近下载:2025-08-25 03:08:01